sensor_id;sensor_type;location;lat;lon;timestamp;P1;durP1;ratioP1;P2;durP2;ratioP2
3155;SDS011;1588;50.892;7.082;2023-06-22T00:00:02;8.60;;;6.60;;
3155;SDS011;1588;50.892;7.082;2023-06-22T00:05:10;11.03;;;6.67;;
3155;SDS011;1588;50.892;7.082;2023-06-22T00:10:12;10.03;;;7.00;;
3155;SDS011;1588;50.892;7.082;2023-06-22T00:15:14;10.60;;;6.60;;
3155;SDS011;1588;50.892;7.082;2023-06-22T00:20:18;9.60;;;5.87;;
3155;SDS011;1588;50.892;7.082;2023-06-22T00:25:20;8.80;;;6.47;;
3155;SDS011;1588;50.892;7.082;2023-06-22T00:30:23;8.10;;;6.77;;
3155;SDS011;1588;50.892;7.082;2023-06-22T00:35:27;11.00;;;8.07;;
3155;SDS011;1588;50.892;7.082;2023-06-22T00:40:30;11.30;;;8.27;;
3155;SDS011;1588;50.892;7.082;2023-06-22T00:45:33;10.00;;;7.40;;
3155;SDS011;1588;50.892;7.082;2023-06-22T00:50:37;10.47;;;7.20;;
3155;SDS011;1588;50.892;7.082;2023-06-22T00:55:41;9.50;;;7.60;;
3155;SDS011;1588;50.892;7.082;2023-06-22T01:00:45;10.90;;;7.87;;
3155;SDS011;1588;50.892;7.082;2023-06-22T01:05:49;11.33;;;7.23;;
3155;SDS011;1588;50.892;7.082;2023-06-22T01:10:54;16.97;;;7.40;;
3155;SDS011;1588;50.892;7.082;2023-06-22T01:16:03;8.87;;;7.00;;
3155;SDS011;1588;50.892;7.082;2023-06-22T01:21:12;9.10;;;7.20;;
3155;SDS011;1588;50.892;7.082;2023-06-22T01:26:18;7.53;;;6.60;;
3155;SDS011;1588;50.892;7.082;2023-06-22T01:31:28;12.90;;;8.00;;
3155;SDS011;1588;50.892;7.082;2023-06-22T01:36:31;10.87;;;7.30;;
3155;SDS011;1588;50.892;7.082;2023-06-22T01:41:35;11.27;;;7.20;;
3155;SDS011;1588;50.892;7.082;2023-06-22T01:46:40;11.30;;;7.17;;
3155;SDS011;1588;50.892;7.082;2023-06-22T01:51:43;13.57;;;7.17;;
3155;SDS011;1588;50.892;7.082;2023-06-22T01:56:45;11.10;;;7.20;;
3155;SDS011;1588;50.892;7.082;2023-06-22T02:01:50;11.97;;;7.53;;
3155;SDS011;1588;50.892;7.082;2023-06-22T02:06:56;12.93;;;7.30;;
3155;SDS011;1588;50.892;7.082;2023-06-22T02:12:01;12.37;;;7.63;;
3155;SDS011;1588;50.892;7.082;2023-06-22T02:17:07;10.03;;;6.90;;
3155;SDS011;1588;50.892;7.082;2023-06-22T02:22:10;10.17;;;7.53;;
3155;SDS011;1588;50.892;7.082;2023-06-22T02:27:13;9.57;;;7.50;;
3155;SDS011;1588;50.892;7.082;2023-06-22T02:32:16;11.17;;;7.57;;
3155;SDS011;1588;50.892;7.082;2023-06-22T02:37:19;8.63;;;7.00;;
3155;SDS011;1588;50.892;7.082;2023-06-22T02:42:21;14.23;;;7.63;;
3155;SDS011;1588;50.892;7.082;2023-06-22T02:47:25;10.50;;;7.83;;
3155;SDS011;1588;50.892;7.082;2023-06-22T02:52:27;12.87;;;8.10;;
3155;SDS011;1588;50.892;7.082;2023-06-22T02:57:29;9.90;;;7.90;;
3155;SDS011;1588;50.892;7.082;2023-06-22T03:02:33;8.50;;;7.60;;
3155;SDS011;1588;50.892;7.082;2023-06-22T03:07:35;8.43;;;6.70;;
3155;SDS011;1588;50.892;7.082;2023-06-22T03:12:38;9.83;;;7.07;;
3155;SDS011;1588;50.892;7.082;2023-06-22T03:17:42;15.43;;;8.00;;
3155;SDS011;1588;50.892;7.082;2023-06-22T03:22:44;10.47;;;7.50;;
3155;SDS011;1588;50.892;7.082;2023-06-22T03:27:46;9.87;;;7.70;;
3155;SDS011;1588;50.892;7.082;2023-06-22T03:32:51;10.60;;;8.07;;
3155;SDS011;1588;50.892;7.082;2023-06-22T03:37:53;13.87;;;8.70;;
3155;SDS011;1588;50.892;7.082;2023-06-22T03:42:56;11.50;;;8.20;;
3155;SDS011;1588;50.892;7.082;2023-06-22T03:47:59;12.03;;;8.50;;
3155;SDS011;1588;50.892;7.082;2023-06-22T03:53:02;11.00;;;8.20;;
3155;SDS011;1588;50.892;7.082;2023-06-22T03:58:04;11.50;;;8.70;;
3155;SDS011;1588;50.892;7.082;2023-06-22T04:03:08;11.00;;;8.13;;
3155;SDS011;1588;50.892;7.082;2023-06-22T04:08:13;15.27;;;8.60;;
3155;SDS011;1588;50.892;7.082;2023-06-22T04:13:15;11.33;;;8.23;;
3155;SDS011;1588;50.892;7.082;2023-06-22T04:18:19;21.20;;;7.37;;
3155;SDS011;1588;50.892;7.082;2023-06-22T04:23:21;19.07;;;8.20;;
3155;SDS011;1588;50.892;7.082;2023-06-22T04:28:23;11.57;;;8.63;;
3155;SDS011;1588;50.892;7.082;2023-06-22T04:33:27;11.80;;;8.43;;
3155;SDS011;1588;50.892;7.082;2023-06-22T04:38:30;12.03;;;8.73;;
3155;SDS011;1588;50.892;7.082;2023-06-22T04:43:34;13.20;;;8.77;;
3155;SDS011;1588;50.892;7.082;2023-06-22T04:48:37;13.03;;;9.23;;
3155;SDS011;1588;50.892;7.082;2023-06-22T04:53:39;13.47;;;8.43;;
3155;SDS011;1588;50.892;7.082;2023-06-22T04:58:42;11.40;;;9.20;;
3155;SDS011;1588;50.892;7.082;2023-06-22T05:03:45;15.60;;;10.63;;
3155;SDS011;1588;50.892;7.082;2023-06-22T05:08:48;13.60;;;9.60;;
3155;SDS011;1588;50.892;7.082;2023-06-22T05:13:50;12.67;;;10.40;;
3155;SDS011;1588;50.892;7.082;2023-06-22T05:18:54;13.80;;;9.70;;
3155;SDS011;1588;50.892;7.082;2023-06-22T05:23:57;15.90;;;10.20;;
3155;SDS011;1588;50.892;7.082;2023-06-22T05:29:01;14.10;;;10.37;;
3155;SDS011;1588;50.892;7.082;2023-06-22T05:34:05;17.77;;;10.27;;
3155;SDS011;1588;50.892;7.082;2023-06-22T05:39:11;13.60;;;8.90;;
3155;SDS011;1588;50.892;7.082;2023-06-22T05:44:14;11.60;;;7.77;;
3155;SDS011;1588;50.892;7.082;2023-06-22T05:49:18;12.90;;;8.60;;
3155;SDS011;1588;50.892;7.082;2023-06-22T05:54:22;10.57;;;8.07;;
3155;SDS011;1588;50.892;7.082;2023-06-22T05:59:24;13.10;;;8.73;;
3155;SDS011;1588;50.892;7.082;2023-06-22T06:04:28;11.77;;;8.97;;
3155;SDS011;1588;50.892;7.082;2023-06-22T06:09:30;13.47;;;8.53;;
3155;SDS011;1588;50.892;7.082;2023-06-22T06:14:33;12.53;;;8.40;;
3155;SDS011;1588;50.892;7.082;2023-06-22T06:19:36;14.23;;;8.50;;
3155;SDS011;1588;50.892;7.082;2023-06-22T06:24:39;11.00;;;8.20;;
3155;SDS011;1588;50.892;7.082;2023-06-22T06:29:44;9.87;;;7.70;;
3155;SDS011;1588;50.892;7.082;2023-06-22T06:34:50;10.33;;;8.00;;
3155;SDS011;1588;50.892;7.082;2023-06-22T06:39:52;10.33;;;7.80;;
3155;SDS011;1588;50.892;7.082;2023-06-22T06:44:54;9.27;;;7.70;;
3155;SDS011;1588;50.892;7.082;2023-06-22T06:49:58;13.47;;;8.50;;
3155;SDS011;1588;50.892;7.082;2023-06-22T06:55:01;13.17;;;8.97;;
3155;SDS011;1588;50.892;7.082;2023-06-22T07:00:05;11.37;;;8.30;;
3155;SDS011;1588;50.892;7.082;2023-06-22T07:05:13;10.10;;;8.00;;
3155;SDS011;1588;50.892;7.082;2023-06-22T07:10:15;12.07;;;7.80;;
3155;SDS011;1588;50.892;7.082;2023-06-22T07:15:18;9.30;;;7.70;;
3155;SDS011;1588;50.892;7.082;2023-06-22T07:20:22;9.73;;;7.97;;
3155;SDS011;1588;50.892;7.082;2023-06-22T07:25:24;9.83;;;7.20;;
3155;SDS011;1588;50.892;7.082;2023-06-22T07:30:27;9.97;;;7.70;;
3155;SDS011;1588;50.892;7.082;2023-06-22T07:35:31;8.63;;;7.37;;
3155;SDS011;1588;50.892;7.082;2023-06-22T07:40:33;9.80;;;7.67;;
3155;SDS011;1588;50.892;7.082;2023-06-22T07:45:37;10.23;;;7.07;;
3155;SDS011;1588;50.892;7.082;2023-06-22T07:50:42;8.57;;;7.07;;
3155;SDS011;1588;50.892;7.082;2023-06-22T07:55:44;9.53;;;7.50;;
3155;SDS011;1588;50.892;7.082;2023-06-22T08:00:47;8.77;;;7.23;;
3155;SDS011;1588;50.892;7.082;2023-06-22T08:05:51;9.67;;;7.50;;
3155;SDS011;1588;50.892;7.082;2023-06-22T08:10:53;11.70;;;7.93;;
3155;SDS011;1588;50.892;7.082;2023-06-22T08:15:56;9.30;;;7.00;;
3155;SDS011;1588;50.892;7.082;2023-06-22T08:21:00;9.00;;;6.80;;
3155;SDS011;1588;50.892;7.082;2023-06-22T08:26:02;12.20;;;7.53;;
3155;SDS011;1588;50.892;7.082;2023-06-22T08:31:04;10.13;;;6.97;;
3155;SDS011;1588;50.892;7.082;2023-06-22T08:36:08;14.80;;;7.17;;
3155;SDS011;1588;50.892;7.082;2023-06-22T08:41:11;11.50;;;8.40;;
3155;SDS011;1588;50.892;7.082;2023-06-22T08:46:14;9.83;;;7.53;;
3155;SDS011;1588;50.892;7.082;2023-06-22T08:51:22;8.70;;;7.30;;
3155;SDS011;1588;50.892;7.082;2023-06-22T08:56:24;8.73;;;7.37;;
3155;SDS011;1588;50.892;7.082;2023-06-22T09:01:27;9.83;;;8.07;;
3155;SDS011;1588;50.892;7.082;2023-06-22T09:06:31;8.40;;;6.70;;
3155;SDS011;1588;50.892;7.082;2023-06-22T09:11:33;10.77;;;7.03;;
3155;SDS011;1588;50.892;7.082;2023-06-22T09:16:36;11.20;;;7.57;;
3155;SDS011;1588;50.892;7.082;2023-06-22T09:21:42;9.80;;;6.50;;
3155;SDS011;1588;50.892;7.082;2023-06-22T09:26:45;9.20;;;6.97;;
3155;SDS011;1588;50.892;7.082;2023-06-22T09:31:47;8.93;;;6.73;;
3155;SDS011;1588;50.892;7.082;2023-06-22T09:36:51;8.27;;;6.53;;
3155;SDS011;1588;50.892;7.082;2023-06-22T09:41:53;13.47;;;7.60;;
3155;SDS011;1588;50.892;7.082;2023-06-22T09:46:56;11.90;;;7.23;;
3155;SDS011;1588;50.892;7.082;2023-06-22T09:52:00;9.37;;;7.43;;
3155;SDS011;1588;50.892;7.082;2023-06-22T09:57:03;9.97;;;7.13;;
3155;SDS011;1588;50.892;7.082;2023-06-22T10:02:06;11.30;;;6.80;;
3155;SDS011;1588;50.892;7.082;2023-06-22T10:07:10;11.33;;;7.77;;
3155;SDS011;1588;50.892;7.082;2023-06-22T10:12:12;7.90;;;6.60;;
3155;SDS011;1588;50.892;7.082;2023-06-22T10:17:15;8.27;;;6.80;;
3155;SDS011;1588;50.892;7.082;2023-06-22T10:22:19;10.10;;;8.00;;
3155;SDS011;1588;50.892;7.082;2023-06-22T10:27:21;13.60;;;7.80;;
3155;SDS011;1588;50.892;7.082;2023-06-22T10:32:23;11.50;;;8.47;;
3155;SDS011;1588;50.892;7.082;2023-06-22T10:37:27;12.30;;;8.23;;
3155;SDS011;1588;50.892;7.082;2023-06-22T10:42:29;17.20;;;8.30;;
3155;SDS011;1588;50.892;7.082;2023-06-22T10:47:31;14.17;;;9.60;;
3155;SDS011;1588;50.892;7.082;2023-06-22T10:52:35;14.07;;;9.20;;
3155;SDS011;1588;50.892;7.082;2023-06-22T10:57:38;12.93;;;9.53;;
3155;SDS011;1588;50.892;7.082;2023-06-22T11:02:43;14.80;;;10.30;;
3155;SDS011;1588;50.892;7.082;2023-06-22T11:07:47;20.40;;;10.97;;
3155;SDS011;1588;50.892;7.082;2023-06-22T11:18:48;83.37;;;14.30;;
3155;SDS011;1588;50.892;7.082;2023-06-22T11:23:52;27.00;;;12.60;;
3155;SDS011;1588;50.892;7.082;2023-06-22T11:28:55;17.53;;;12.20;;
3155;SDS011;1588;50.892;7.082;2023-06-22T11:34:00;16.87;;;12.30;;
3155;SDS011;1588;50.892;7.082;2023-06-22T11:39:07;18.70;;;12.30;;
3155;SDS011;1588;50.892;7.082;2023-06-22T11:44:28;12.87;;;10.07;;
3155;SDS011;1588;50.892;7.082;2023-06-22T11:49:31;18.20;;;10.77;;
3155;SDS011;1588;50.892;7.082;2023-06-22T11:54:35;21.23;;;12.17;;
3155;SDS011;1588;50.892;7.082;2023-06-22T11:59:39;16.40;;;11.90;;
3155;SDS011;1588;50.892;7.082;2023-06-22T12:04:41;17.50;;;12.90;;
3155;SDS011;1588;50.892;7.082;2023-06-22T12:09:45;18.27;;;13.07;;
3155;SDS011;1588;50.892;7.082;2023-06-22T12:14:47;23.53;;;13.67;;
3155;SDS011;1588;50.892;7.082;2023-06-22T12:19:50;21.13;;;13.33;;
3155;SDS011;1588;50.892;7.082;2023-06-22T12:24:53;19.90;;;13.83;;
3155;SDS011;1588;50.892;7.082;2023-06-22T12:29:56;22.70;;;14.23;;
3155;SDS011;1588;50.892;7.082;2023-06-22T12:34:59;26.83;;;14.53;;
3155;SDS011;1588;50.892;7.082;2023-06-22T12:40:03;22.80;;;14.70;;
3155;SDS011;1588;50.892;7.082;2023-06-22T12:45:06;22.20;;;14.70;;
3155;SDS011;1588;50.892;7.082;2023-06-22T12:50:10;17.90;;;12.90;;
3155;SDS011;1588;50.892;7.082;2023-06-22T12:55:15;20.10;;;13.97;;
3155;SDS011;1588;50.892;7.082;2023-06-22T13:00:17;17.47;;;11.37;;
3155;SDS011;1588;50.892;7.082;2023-06-22T13:05:20;19.03;;;11.67;;
3155;SDS011;1588;50.892;7.082;2023-06-22T13:10:25;16.27;;;12.60;;
3155;SDS011;1588;50.892;7.082;2023-06-22T13:15:28;15.87;;;10.33;;
3155;SDS011;1588;50.892;7.082;2023-06-22T13:20:31;13.90;;;10.57;;
3155;SDS011;1588;50.892;7.082;2023-06-22T13:25:35;14.70;;;10.47;;
3155;SDS011;1588;50.892;7.082;2023-06-22T13:30:37;15.37;;;11.03;;
3155;SDS011;1588;50.892;7.082;2023-06-22T13:35:40;16.00;;;11.00;;
3155;SDS011;1588;50.892;7.082;2023-06-22T13:40:44;12.50;;;9.50;;
3155;SDS011;1588;50.892;7.082;2023-06-22T13:45:48;11.40;;;9.10;;
3155;SDS011;1588;50.892;7.082;2023-06-22T13:50:53;12.77;;;9.47;;
3155;SDS011;1588;50.892;7.082;2023-06-22T13:55:57;15.30;;;8.80;;
3155;SDS011;1588;50.892;7.082;2023-06-22T14:01:00;10.83;;;8.10;;
3155;SDS011;1588;50.892;7.082;2023-06-22T14:06:02;10.10;;;8.30;;
3155;SDS011;1588;50.892;7.082;2023-06-22T14:11:06;9.10;;;7.20;;
3155;SDS011;1588;50.892;7.082;2023-06-22T14:16:08;10.33;;;6.80;;
3155;SDS011;1588;50.892;7.082;2023-06-22T14:21:11;7.20;;;6.43;;
3155;SDS011;1588;50.892;7.082;2023-06-22T14:26:15;12.40;;;7.10;;
3155;SDS011;1588;50.892;7.082;2023-06-22T14:31:19;12.00;;;7.27;;
3155;SDS011;1588;50.892;7.082;2023-06-22T14:36:22;10.63;;;6.97;;
3155;SDS011;1588;50.892;7.082;2023-06-22T14:41:27;10.37;;;8.10;;
3155;SDS011;1588;50.892;7.082;2023-06-22T14:46:29;16.27;;;8.00;;
3155;SDS011;1588;50.892;7.082;2023-06-22T14:51:31;9.20;;;7.00;;
3155;SDS011;1588;50.892;7.082;2023-06-22T14:56:35;59.67;;;10.20;;
3155;SDS011;1588;50.892;7.082;2023-06-22T15:01:40;14.00;;;9.27;;
3155;SDS011;1588;50.892;7.082;2023-06-22T15:06:42;13.57;;;8.97;;
3155;SDS011;1588;50.892;7.082;2023-06-22T15:11:53;18.03;;;9.43;;
3155;SDS011;1588;50.892;7.082;2023-06-22T15:17:14;62.07;;;10.40;;
3155;SDS011;1588;50.892;7.082;2023-06-22T15:22:36;17.00;;;11.27;;
3155;SDS011;1588;50.892;7.082;2023-06-22T15:28:00;13.93;;;9.30;;
3155;SDS011;1588;50.892;7.082;2023-06-22T15:33:23;13.30;;;8.47;;
3155;SDS011;1588;50.892;7.082;2023-06-22T15:44:58;27.63;;;10.10;;
3155;SDS011;1588;50.892;7.082;2023-06-22T15:50:29;13.97;;;8.43;;
3155;SDS011;1588;50.892;7.082;2023-06-22T15:56:01;19.50;;;9.90;;
3155;SDS011;1588;50.892;7.082;2023-06-22T16:01:13;18.10;;;10.57;;
3155;SDS011;1588;50.892;7.082;2023-06-22T16:06:39;9.90;;;7.77;;
3155;SDS011;1588;50.892;7.082;2023-06-22T16:12:04;15.67;;;8.37;;
3155;SDS011;1588;50.892;7.082;2023-06-22T16:17:29;19.53;;;9.97;;
3155;SDS011;1588;50.892;7.082;2023-06-22T16:23:27;15.60;;;9.10;;
3155;SDS011;1588;50.892;7.082;2023-06-22T16:29:27;14.50;;;10.80;;
3155;SDS011;1588;50.892;7.082;2023-06-22T16:34:49;22.23;;;12.03;;
3155;SDS011;1588;50.892;7.082;2023-06-22T16:40:12;13.67;;;10.10;;
3155;SDS011;1588;50.892;7.082;2023-06-22T16:46:09;12.57;;;8.27;;
3155;SDS011;1588;50.892;7.082;2023-06-22T16:57:47;15.60;;;7.27;;
3155;SDS011;1588;50.892;7.082;2023-06-22T17:21:31;16.37;;;7.23;;
3155;SDS011;1588;50.892;7.082;2023-06-22T17:27:07;11.70;;;6.43;;
3155;SDS011;1588;50.892;7.082;2023-06-22T17:38:38;7.10;;;6.23;;
3155;SDS011;1588;50.892;7.082;2023-06-22T17:43:59;12.70;;;7.17;;
3155;SDS011;1588;50.892;7.082;2023-06-22T17:49:03;8.27;;;5.87;;
3155;SDS011;1588;50.892;7.082;2023-06-22T17:54:09;12.50;;;7.30;;
3155;SDS011;1588;50.892;7.082;2023-06-22T17:59:13;11.13;;;5.40;;
3155;SDS011;1588;50.892;7.082;2023-06-22T18:04:22;9.20;;;5.57;;
3155;SDS011;1588;50.892;7.082;2023-06-22T18:09:34;6.03;;;4.80;;
3155;SDS011;1588;50.892;7.082;2023-06-22T18:14:41;8.33;;;5.07;;
3155;SDS011;1588;50.892;7.082;2023-06-22T18:19:47;10.60;;;5.70;;
3155;SDS011;1588;50.892;7.082;2023-06-22T18:25:02;8.77;;;6.10;;
3155;SDS011;1588;50.892;7.082;2023-06-22T18:30:10;11.37;;;6.83;;
3155;SDS011;1588;50.892;7.082;2023-06-22T18:35:22;14.23;;;8.10;;
3155;SDS011;1588;50.892;7.082;2023-06-22T18:40:30;10.63;;;8.90;;
3155;SDS011;1588;50.892;7.082;2023-06-22T18:45:38;19.57;;;12.13;;
3155;SDS011;1588;50.892;7.082;2023-06-22T18:50:42;20.07;;;14.30;;
3155;SDS011;1588;50.892;7.082;2023-06-22T18:55:49;36.87;;;24.97;;
3155;SDS011;1588;50.892;7.082;2023-06-22T19:00:53;35.27;;;21.43;;
3155;SDS011;1588;50.892;7.082;2023-06-22T19:12:19;26.73;;;17.80;;
3155;SDS011;1588;50.892;7.082;2023-06-22T19:17:22;25.87;;;17.80;;
3155;SDS011;1588;50.892;7.082;2023-06-22T19:22:42;24.73;;;16.70;;
3155;SDS011;1588;50.892;7.082;2023-06-22T19:27:54;24.27;;;15.90;;
3155;SDS011;1588;50.892;7.082;2023-06-22T19:32:56;23.50;;;16.43;;
3155;SDS011;1588;50.892;7.082;2023-06-22T19:38:07;14.80;;;10.83;;
3155;SDS011;1588;50.892;7.082;2023-06-22T19:43:16;9.70;;;7.37;;
3155;SDS011;1588;50.892;7.082;2023-06-22T19:48:19;6.70;;;5.10;;
3155;SDS011;1588;50.892;7.082;2023-06-22T19:53:33;4.27;;;3.40;;
3155;SDS011;1588;50.892;7.082;2023-06-22T20:04:47;3.53;;;3.10;;
3155;SDS011;1588;50.892;7.082;2023-06-22T20:15:13;9.93;;;4.50;;
3155;SDS011;1588;50.892;7.082;2023-06-22T20:20:30;8.30;;;5.40;;
3155;SDS011;1588;50.892;7.082;2023-06-22T20:25:40;10.27;;;5.80;;
3155;SDS011;1588;50.892;7.082;2023-06-22T20:31:01;10.17;;;6.73;;
3155;SDS011;1588;50.892;7.082;2023-06-22T20:36:06;8.57;;;6.30;;
3155;SDS011;1588;50.892;7.082;2023-06-22T20:41:24;11.80;;;7.23;;
3155;SDS011;1588;50.892;7.082;2023-06-22T20:46:41;12.07;;;7.23;;
3155;SDS011;1588;50.892;7.082;2023-06-22T20:51:50;9.97;;;6.60;;
3155;SDS011;1588;50.892;7.082;2023-06-22T20:56:58;11.77;;;7.50;;
3155;SDS011;1588;50.892;7.082;2023-06-22T21:02:08;18.30;;;7.90;;
3155;SDS011;1588;50.892;7.082;2023-06-22T21:07:25;15.90;;;8.43;;
3155;SDS011;1588;50.892;7.082;2023-06-22T21:12:40;13.87;;;8.77;;
3155;SDS011;1588;50.892;7.082;2023-06-22T21:17:55;13.60;;;8.60;;
3155;SDS011;1588;50.892;7.082;2023-06-22T21:23:05;13.37;;;8.50;;
3155;SDS011;1588;50.892;7.082;2023-06-22T21:28:37;11.70;;;8.00;;
3155;SDS011;1588;50.892;7.082;2023-06-22T21:33:41;13.50;;;9.20;;
3155;SDS011;1588;50.892;7.082;2023-06-22T21:38:44;14.50;;;8.73;;
3155;SDS011;1588;50.892;7.082;2023-06-22T21:43:50;12.90;;;8.07;;
3155;SDS011;1588;50.892;7.082;2023-06-22T21:49:06;13.93;;;8.60;;
3155;SDS011;1588;50.892;7.082;2023-06-22T21:54:09;14.17;;;9.00;;
3155;SDS011;1588;50.892;7.082;2023-06-22T21:59:15;17.90;;;10.70;;
3155;SDS011;1588;50.892;7.082;2023-06-22T22:04:23;15.07;;;10.30;;
3155;SDS011;1588;50.892;7.082;2023-06-22T22:09:29;16.17;;;10.10;;
3155;SDS011;1588;50.892;7.082;2023-06-22T22:14:31;14.97;;;9.37;;
3155;SDS011;1588;50.892;7.082;2023-06-22T22:19:40;17.33;;;10.97;;
3155;SDS011;1588;50.892;7.082;2023-06-22T22:24:46;16.63;;;10.13;;
3155;SDS011;1588;50.892;7.082;2023-06-22T22:29:49;16.00;;;9.83;;
3155;SDS011;1588;50.892;7.082;2023-06-22T22:34:56;14.57;;;9.27;;
3155;SDS011;1588;50.892;7.082;2023-06-22T22:39:58;11.60;;;8.10;;
3155;SDS011;1588;50.892;7.082;2023-06-22T22:45:05;13.90;;;9.70;;
3155;SDS011;1588;50.892;7.082;2023-06-22T22:50:09;11.63;;;8.47;;
3155;SDS011;1588;50.892;7.082;2023-06-22T22:55:15;16.83;;;10.20;;
3155;SDS011;1588;50.892;7.082;2023-06-22T23:00:19;18.93;;;11.63;;
3155;SDS011;1588;50.892;7.082;2023-06-22T23:05:25;20.40;;;13.37;;
3155;SDS011;1588;50.892;7.082;2023-06-22T23:10:28;21.93;;;12.97;;
3155;SDS011;1588;50.892;7.082;2023-06-22T23:15:39;19.00;;;11.47;;
3155;SDS011;1588;50.892;7.082;2023-06-22T23:20:45;17.60;;;10.13;;
3155;SDS011;1588;50.892;7.082;2023-06-22T23:25:48;17.27;;;9.40;;
3155;SDS011;1588;50.892;7.082;2023-06-22T23:30:53;15.13;;;9.53;;
3155;SDS011;1588;50.892;7.082;2023-06-22T23:35:59;15.80;;;10.20;;
3155;SDS011;1588;50.892;7.082;2023-06-22T23:41:05;17.50;;;10.10;;
3155;SDS011;1588;50.892;7.082;2023-06-22T23:46:11;17.67;;;10.57;;
3155;SDS011;1588;50.892;7.082;2023-06-22T23:51:15;18.77;;;10.57;;
3155;SDS011;1588;50.892;7.082;2023-06-22T23:56:17;19.93;;;13.10;;
